Главная страница
METAR-TAF:

METAR-TAF

Аэропорты :

Мехрабад

Тегеран, Иран

широта: 35-41N, долгота: 051-21E, высота над уровнем моря: 1204 м

Текущие метеонаблюдения

Эта сводка был подготовлена 39 минут назад, в 10:30 UTC
Ветер 6 Узел от юго-юго-восточный
Температура 12°C
Влажность 44%
Давление 1025 hPa
Видимость: 8000 м
небольшая облачность на высоте 4000 фута

METAR: OIII 191030Z 16006KT 8000 FEW040 12/M00 Q1024 A3026

Время: 14:39 (11:09 UTC)

Прогноз

Эта сводка был подготовлена 5 часа и 39 минут назад, в 05:30 UTC
Прогноз действительный с 19-го 06 UTC до 20-го 12 UTC
Ветер 6 Узел от восточно-юго-восточный
Видимость: 8000 м

TAF: OIII 190530Z 1906/2012 11003MPS 8000 NSC

Метеонаблюдения и прогнозы для более 4000 аэропортов (сводки METAR и TAF).

Имеющиеся станции представлены на карте желтыми и красными точками.

Чтобы увидеть название станции, наведите на нее мышь.

Затем щелкните, чтобы увидеть метеонаблюдения и метеопрогнозы.

Управление картой: чтобы увеличить масштаб, щелкните зеленые кнопки с черным крестиком; чтобы уменьшить масштаб, щелкните зеленую кнопку с тире; для просмотра соседних карт щелкайте зеленые стрелки.


METAR-TAF: